createdAt,value
2017-12-19T00:00:45.474Z,15.30
2017-12-19T00:03:12.303Z,15.00
2017-12-19T00:05:39.147Z,12.27
2017-12-19T00:08:05.928Z,15.27
2017-12-19T00:10:32.794Z,11.63
2017-12-19T00:12:59.592Z,15.77
2017-12-19T00:15:26.400Z,12.70
2017-12-19T00:17:53.223Z,12.13
2017-12-19T00:20:20.065Z,13.33
2017-12-19T00:22:46.879Z,13.73
2017-12-19T00:25:14.591Z,13.07
2017-12-19T00:27:41.368Z,12.50
2017-12-19T00:30:08.182Z,14.73
2017-12-19T00:32:35.054Z,15.03
2017-12-19T00:35:01.856Z,10.87
2017-12-19T00:37:28.678Z,13.33
2017-12-19T00:39:55.488Z,10.50
2017-12-19T00:42:22.280Z,15.57
2017-12-19T00:44:49.052Z,17.20
2017-12-19T00:47:15.881Z,15.40
2017-12-19T00:49:42.654Z,12.93
2017-12-19T00:52:09.474Z,14.17
2017-12-19T00:54:36.292Z,13.00
2017-12-19T00:57:03.105Z,14.77
2017-12-19T00:59:29.904Z,13.53
2017-12-19T01:01:56.781Z,13.80
2017-12-19T01:04:23.554Z,14.50
2017-12-19T01:06:50.377Z,13.00
2017-12-19T01:09:17.198Z,15.37
2017-12-19T01:11:43.964Z,14.90
2017-12-19T01:14:10.753Z,14.90
2017-12-19T01:16:37.614Z,13.23
2017-12-19T01:19:04.388Z,14.43
2017-12-19T01:21:31.184Z,12.60
2017-12-19T01:23:58.018Z,12.13
2017-12-19T01:26:24.790Z,14.93
2017-12-19T01:28:51.590Z,12.37
2017-12-19T01:31:18.442Z,11.53
2017-12-19T01:33:45.225Z,13.20
2017-12-19T01:36:11.990Z,12.47
2017-12-19T01:38:38.809Z,10.80
2017-12-19T01:41:05.630Z,13.90
2017-12-19T01:43:32.430Z,15.13
2017-12-19T01:45:59.255Z,12.67
2017-12-19T01:48:26.048Z,14.80
2017-12-19T01:50:52.795Z,9.73
2017-12-19T01:53:19.594Z,12.90
2017-12-19T01:55:46.439Z,15.73
2017-12-19T01:58:13.219Z,11.60
2017-12-19T02:00:40.048Z,12.10
2017-12-19T02:03:06.888Z,13.63
2017-12-19T02:05:33.663Z,8.00
2017-12-19T02:08:00.469Z,11.63
2017-12-19T02:10:27.277Z,12.63
2017-12-19T02:12:54.070Z,10.23
2017-12-19T02:15:20.911Z,10.47
2017-12-19T02:17:47.695Z,13.53
2017-12-19T02:20:14.496Z,13.33
2017-12-19T02:22:41.346Z,13.23
2017-12-19T02:25:08.164Z,13.97
2017-12-19T02:27:34.991Z,12.83
2017-12-19T02:30:01.848Z,11.27
2017-12-19T02:32:28.670Z,12.70
2017-12-19T02:34:55.525Z,12.60
2017-12-19T02:37:22.343Z,13.60
2017-12-19T02:39:49.154Z,12.17
2017-12-19T02:42:15.954Z,12.10
2017-12-19T02:44:42.796Z,12.50
2017-12-19T02:47:09.580Z,13.57
2017-12-19T02:49:36.379Z,11.60
2017-12-19T02:52:03.226Z,12.47
2017-12-19T02:54:30.042Z,10.40
2017-12-19T02:56:56.828Z,12.07
2017-12-19T02:59:23.648Z,11.57
2017-12-19T03:01:50.469Z,10.67
2017-12-19T03:04:17.270Z,11.40
2017-12-19T03:06:44.137Z,10.53
2017-12-19T03:09:10.959Z,11.70
2017-12-19T03:11:37.776Z,12.53
2017-12-19T03:14:04.599Z,9.50
2017-12-19T03:16:33.188Z,12.20
2017-12-19T03:19:00.021Z,13.03
2017-12-19T03:21:26.847Z,9.87
2017-12-19T03:23:53.714Z,10.20
2017-12-19T03:26:20.523Z,11.07
2017-12-19T03:28:47.392Z,10.70
2017-12-19T03:31:14.209Z,11.97
2017-12-19T03:33:40.996Z,10.43
2017-12-19T03:36:07.836Z,10.67
2017-12-19T03:38:34.659Z,9.50
2017-12-19T03:41:01.475Z,10.53
2017-12-19T03:43:28.311Z,10.63
2017-12-19T03:45:55.115Z,11.10
2017-12-19T03:48:21.931Z,11.43
2017-12-19T03:50:48.768Z,9.30
2017-12-19T03:53:15.619Z,9.40
2017-12-19T03:55:42.453Z,8.90
2017-12-19T03:58:09.307Z,8.43
2017-12-19T04:00:36.137Z,8.93
2017-12-19T04:03:02.936Z,12.20
2017-12-19T04:05:29.781Z,9.13
2017-12-19T04:07:56.599Z,9.70
2017-12-19T04:10:23.420Z,8.07
2017-12-19T04:12:50.263Z,9.00
2017-12-19T04:15:17.084Z,7.87
2017-12-19T04:17:43.882Z,7.70
2017-12-19T04:20:10.733Z,6.23
2017-12-19T04:22:37.550Z,9.13
2017-12-19T04:25:04.344Z,7.83
2017-12-19T04:27:31.189Z,8.10
2017-12-19T04:29:57.981Z,7.33
2017-12-19T04:32:24.787Z,7.03
2017-12-19T04:34:51.626Z,5.80
2017-12-19T04:37:18.449Z,4.90
2017-12-19T04:39:45.270Z,5.80
2017-12-19T04:42:12.112Z,6.37
2017-12-19T04:44:38.908Z,6.37
2017-12-19T04:47:05.698Z,5.17
2017-12-19T04:49:32.533Z,6.73
2017-12-19T04:51:59.338Z,4.17
2017-12-19T04:54:26.146Z,5.50
2017-12-19T04:56:52.968Z,6.07
2017-12-19T04:59:19.743Z,3.90
2017-12-19T05:01:46.543Z,5.70
2017-12-19T05:04:13.359Z,5.40
2017-12-19T05:06:40.172Z,5.77
2017-12-19T05:09:06.975Z,4.43
2017-12-19T05:11:33.817Z,5.97
2017-12-19T05:14:00.615Z,2.90
2017-12-19T05:16:27.458Z,3.20
2017-12-19T05:18:54.305Z,6.57
2017-12-19T05:21:21.084Z,5.40
2017-12-19T05:23:48.768Z,5.20
2017-12-19T05:26:15.600Z,3.30
2017-12-19T05:28:42.442Z,5.70
2017-12-19T05:31:09.232Z,7.07
2017-12-19T05:33:36.161Z,4.97
2017-12-19T05:36:02.978Z,5.33
2017-12-19T05:38:29.779Z,4.33
2017-12-19T05:40:56.607Z,4.33
2017-12-19T05:43:23.447Z,4.20
2017-12-19T05:45:50.261Z,4.37
2017-12-19T05:48:17.141Z,3.80
2017-12-19T05:50:43.971Z,4.33
2017-12-19T05:53:10.814Z,3.33
2017-12-19T05:55:37.641Z,4.87
2017-12-19T05:58:04.431Z,4.80
2017-12-19T06:00:31.279Z,3.70
2017-12-19T06:02:58.123Z,3.80
2017-12-19T06:05:24.912Z,3.07
2017-12-19T06:07:51.908Z,3.50
2017-12-19T06:10:18.744Z,4.10
2017-12-19T06:12:45.631Z,5.13
2017-12-19T06:15:12.479Z,4.00
2017-12-19T06:17:39.316Z,3.43
2017-12-19T06:20:06.173Z,4.23
2017-12-19T06:22:32.987Z,2.97
2017-12-19T06:24:59.911Z,3.80
2017-12-19T06:27:26.736Z,3.20
2017-12-19T06:29:53.535Z,2.73
2017-12-19T06:32:20.364Z,3.03
2017-12-19T06:34:47.155Z,3.00
2017-12-19T06:37:13.986Z,4.03
2017-12-19T06:39:40.864Z,3.50
2017-12-19T06:42:07.694Z,4.30
2017-12-19T06:44:34.494Z,4.80
2017-12-19T06:47:01.343Z,4.43
2017-12-19T06:49:28.310Z,3.43
2017-12-19T06:51:55.150Z,4.00
2017-12-19T06:54:21.986Z,3.03
2017-12-19T06:56:48.784Z,5.30
2017-12-19T06:59:15.610Z,6.63
2017-12-19T07:01:42.480Z,4.00
2017-12-19T07:04:09.311Z,3.80
2017-12-19T07:06:36.106Z,5.00
2017-12-19T07:09:03.005Z,2.67
2017-12-19T07:11:29.820Z,4.83
2017-12-19T07:13:56.643Z,4.00
2017-12-19T07:16:23.469Z,2.93
2017-12-19T07:18:50.314Z,4.00
2017-12-19T07:21:17.172Z,4.20
2017-12-19T07:23:44.011Z,2.23
2017-12-19T07:26:10.869Z,1.83
2017-12-19T07:28:37.684Z,3.70
2017-12-19T07:31:04.548Z,3.00
2017-12-19T07:33:31.368Z,3.40
2017-12-19T07:35:58.228Z,3.70
2017-12-19T07:38:25.120Z,3.93
2017-12-19T07:40:51.922Z,3.27
2017-12-19T07:43:18.806Z,3.33
2017-12-19T07:45:45.649Z,2.93
2017-12-19T07:48:12.417Z,3.00
2017-12-19T07:50:39.177Z,4.20
2017-12-19T07:53:06.027Z,2.80
2017-12-19T07:55:32.848Z,3.90
2017-12-19T07:57:59.684Z,2.70
2017-12-19T08:00:26.496Z,4.23
2017-12-19T08:02:53.304Z,3.20
2017-12-19T08:05:20.112Z,2.90
2017-12-19T08:07:46.929Z,3.57
2017-12-19T08:10:13.760Z,3.10
2017-12-19T08:12:40.531Z,3.27
2017-12-19T08:15:07.350Z,3.10
2017-12-19T08:17:34.195Z,2.43
2017-12-19T08:20:00.980Z,3.07
2017-12-19T08:22:27.828Z,3.43
2017-12-19T08:24:54.642Z,2.77
2017-12-19T08:27:21.416Z,2.90
2017-12-19T08:29:48.200Z,3.80
2017-12-19T08:32:15.003Z,3.37
2017-12-19T08:34:41.829Z,2.43
2017-12-19T08:37:08.674Z,2.67
2017-12-19T08:39:35.467Z,2.97
2017-12-19T08:42:02.256Z,2.57
2017-12-19T08:44:29.051Z,2.50
2017-12-19T08:46:55.837Z,2.53
2017-12-19T08:49:22.612Z,2.50
2017-12-19T08:51:49.423Z,2.47
2017-12-19T08:54:16.259Z,2.63
2017-12-19T08:56:43.037Z,1.93
2017-12-19T08:59:09.840Z,2.20
2017-12-19T09:01:36.617Z,2.20
2017-12-19T09:04:03.379Z,2.70
2017-12-19T09:06:30.161Z,5.27
2017-12-19T09:08:57.012Z,3.17
2017-12-19T09:11:23.798Z,2.60
2017-12-19T09:13:50.689Z,2.80
2017-12-19T09:16:17.474Z,2.60
2017-12-19T09:18:44.278Z,2.70
2017-12-19T09:21:11.111Z,3.27
2017-12-19T09:23:37.888Z,2.87
2017-12-19T09:26:04.698Z,3.00
2017-12-19T09:28:31.511Z,3.33
2017-12-19T09:30:58.256Z,2.53
2017-12-19T09:33:25.016Z,2.97
2017-12-19T09:35:51.818Z,3.27
2017-12-19T09:38:18.598Z,3.20
2017-12-19T09:40:45.376Z,3.30
2017-12-19T09:43:12.164Z,3.80
2017-12-19T09:45:38.931Z,6.07
2017-12-19T09:48:05.702Z,3.93
2017-12-19T09:50:32.540Z,2.73
2017-12-19T09:52:59.332Z,5.30
2017-12-19T09:55:26.104Z,6.70
2017-12-19T09:57:52.930Z,3.63
2017-12-19T10:00:19.750Z,4.53
2017-12-19T10:02:46.573Z,6.40
2017-12-19T10:05:14.343Z,4.97
2017-12-19T10:07:41.130Z,4.53
2017-12-19T10:10:07.896Z,4.93
2017-12-19T10:12:34.754Z,5.10
2017-12-19T10:15:01.599Z,5.77
2017-12-19T10:17:28.398Z,3.67
2017-12-19T10:19:55.238Z,4.60
2017-12-19T10:22:22.053Z,5.87
2017-12-19T10:24:48.845Z,4.17
2017-12-19T10:27:15.710Z,4.37
2017-12-19T10:29:42.516Z,4.37
2017-12-19T10:32:09.352Z,4.57
2017-12-19T10:34:36.200Z,3.43
2017-12-19T10:37:03.021Z,4.27
2017-12-19T10:39:29.806Z,4.80
2017-12-19T10:41:56.668Z,3.37
2017-12-19T10:44:23.518Z,3.27
2017-12-19T10:46:50.292Z,4.00
2017-12-19T10:49:17.168Z,3.00
2017-12-19T10:51:43.950Z,4.43
2017-12-19T10:54:10.762Z,2.67
2017-12-19T10:56:37.604Z,3.07
2017-12-19T10:59:04.419Z,3.07
2017-12-19T11:01:31.194Z,4.07
2017-12-19T11:03:58.032Z,2.73
2017-12-19T11:06:24.820Z,2.83
2017-12-19T11:08:51.602Z,3.23
2017-12-19T11:11:18.430Z,5.03
2017-12-19T11:13:45.192Z,3.10
2017-12-19T11:16:11.961Z,2.57
2017-12-19T11:18:38.775Z,3.70
2017-12-19T11:21:05.545Z,2.60
2017-12-19T11:23:32.351Z,2.53
2017-12-19T11:25:59.195Z,2.60
2017-12-19T11:28:26.003Z,1.90
2017-12-19T11:30:52.815Z,1.90
2017-12-19T11:33:19.658Z,4.50
2017-12-19T11:35:46.451Z,1.80
2017-12-19T11:38:13.248Z,2.30
2017-12-19T11:40:40.090Z,2.50
2017-12-19T11:43:06.899Z,2.60
2017-12-19T11:45:33.667Z,2.03
2017-12-19T11:48:00.494Z,3.13
2017-12-19T11:50:27.275Z,2.60
2017-12-19T11:52:54.085Z,1.60
2017-12-19T11:55:20.916Z,3.03
2017-12-19T11:57:47.705Z,2.20
2017-12-19T12:00:14.483Z,2.33
2017-12-19T12:02:41.325Z,2.43
2017-12-19T12:05:08.119Z,1.93
2017-12-19T12:07:34.926Z,3.57
2017-12-19T12:10:01.704Z,2.07
2017-12-19T12:12:28.464Z,4.60
2017-12-19T12:14:55.269Z,2.37
2017-12-19T12:17:22.128Z,3.07
2017-12-19T12:19:48.880Z,2.00
2017-12-19T12:22:15.692Z,1.90
2017-12-19T12:24:42.513Z,2.73
2017-12-19T12:27:09.288Z,2.43
2017-12-19T12:29:36.092Z,4.87
2017-12-19T12:32:02.892Z,1.40
2017-12-19T12:34:29.728Z,3.70
2017-12-19T12:36:56.554Z,1.73
2017-12-19T12:39:23.428Z,1.70
2017-12-19T12:41:50.271Z,3.63
2017-12-19T12:44:17.090Z,2.30
2017-12-19T12:46:43.955Z,3.00
2017-12-19T12:49:10.766Z,2.37
2017-12-19T12:51:37.548Z,2.83
2017-12-19T12:54:04.404Z,2.00
2017-12-19T12:56:31.195Z,2.17
2017-12-19T12:58:58.000Z,1.57
2017-12-19T13:01:24.847Z,2.13
2017-12-19T13:03:51.655Z,2.47
2017-12-19T13:06:18.491Z,2.87
2017-12-19T13:08:45.352Z,2.67
2017-12-19T13:11:12.191Z,2.57
2017-12-19T13:13:38.960Z,2.53
2017-12-19T13:16:06.395Z,3.10
2017-12-19T13:18:33.197Z,1.87
2017-12-19T13:20:59.991Z,3.40
2017-12-19T13:23:26.814Z,3.70
2017-12-19T13:25:53.608Z,3.07
2017-12-19T13:28:20.376Z,2.60
2017-12-19T13:30:47.205Z,3.60
2017-12-19T13:33:14.007Z,3.17
2017-12-19T13:35:40.824Z,2.80
2017-12-19T13:38:07.665Z,4.03
2017-12-19T13:40:34.466Z,3.20
2017-12-19T13:43:01.236Z,2.10
2017-12-19T13:45:28.056Z,3.10
2017-12-19T13:47:54.856Z,3.53
2017-12-19T13:50:21.646Z,2.53
2017-12-19T13:52:48.482Z,4.00
2017-12-19T13:55:15.282Z,3.10
2017-12-19T13:57:42.895Z,2.00
2017-12-19T14:00:09.760Z,2.30
2017-12-19T14:02:36.559Z,3.00
2017-12-19T14:05:03.382Z,2.60
2017-12-19T14:07:30.175Z,2.43
2017-12-19T14:09:56.928Z,3.47
2017-12-19T14:12:23.688Z,4.20
2017-12-19T14:14:50.494Z,3.50
2017-12-19T14:17:17.275Z,3.13
2017-12-19T14:19:44.092Z,3.47
2017-12-19T14:22:10.899Z,2.47
2017-12-19T14:24:37.669Z,2.17
2017-12-19T14:27:04.515Z,3.00
2017-12-19T14:29:31.665Z,3.47
2017-12-19T14:31:58.560Z,2.10
2017-12-19T14:34:25.320Z,3.90
2017-12-19T14:36:52.141Z,3.93
2017-12-19T14:39:18.926Z,3.53
2017-12-19T14:41:45.721Z,3.13
2017-12-19T14:44:12.544Z,2.23
2017-12-19T14:46:39.323Z,2.50
2017-12-19T14:49:06.122Z,2.40
2017-12-19T14:51:32.946Z,3.00
2017-12-19T14:53:59.711Z,2.77
2017-12-19T14:56:26.575Z,2.97
2017-12-19T14:58:53.389Z,2.33
2017-12-19T15:01:20.503Z,2.67
2017-12-19T15:03:47.442Z,2.63
2017-12-19T15:06:14.267Z,2.57
2017-12-19T15:08:41.019Z,2.80
2017-12-19T15:11:07.861Z,2.93
2017-12-19T15:13:34.688Z,3.50
2017-12-19T15:16:01.444Z,3.20
2017-12-19T15:18:28.267Z,3.67
2017-12-19T15:20:55.089Z,2.83
2017-12-19T15:23:21.877Z,3.00
2017-12-19T15:25:48.663Z,4.00
2017-12-19T15:28:15.463Z,2.83
2017-12-19T15:30:42.281Z,3.40
2017-12-19T15:33:09.117Z,3.50
2017-12-19T15:35:35.954Z,3.20
2017-12-19T15:38:02.704Z,3.57
2017-12-19T15:40:29.552Z,3.60
2017-12-19T15:42:56.394Z,3.40
2017-12-19T15:45:23.215Z,4.13
2017-12-19T15:47:49.992Z,2.60
2017-12-19T15:50:16.795Z,3.70
2017-12-19T15:52:43.605Z,2.93
2017-12-19T15:55:10.374Z,4.00
2017-12-19T15:57:37.238Z,3.37
2017-12-19T16:00:04.058Z,3.60
2017-12-19T16:02:30.820Z,4.20
2017-12-19T16:04:57.630Z,3.40
2017-12-19T16:07:24.408Z,4.80
2017-12-19T16:09:51.190Z,4.70
2017-12-19T16:12:18.008Z,7.53
2017-12-19T16:14:44.810Z,10.57
2017-12-19T16:17:11.587Z,16.50
2017-12-19T16:19:38.455Z,20.77
2017-12-19T16:22:05.255Z,23.33
2017-12-19T16:24:32.099Z,26.23
2017-12-19T16:26:58.943Z,23.80
2017-12-19T16:29:25.746Z,24.70
2017-12-19T16:31:52.554Z,22.40
2017-12-19T16:34:19.389Z,22.57
2017-12-19T16:36:46.168Z,14.83
2017-12-19T16:39:12.977Z,14.40
2017-12-19T16:41:40.079Z,12.17
2017-12-19T16:44:06.992Z,7.60
2017-12-19T16:46:33.772Z,6.87
2017-12-19T16:49:00.638Z,5.10
2017-12-19T16:51:27.544Z,7.70
2017-12-19T16:53:54.366Z,11.60
2017-12-19T16:56:21.459Z,6.70
2017-12-19T16:58:48.608Z,6.83
2017-12-19T17:01:15.385Z,6.07
2017-12-19T17:03:42.242Z,4.20
2017-12-19T17:06:09.034Z,4.90
2017-12-19T17:08:36.014Z,6.10
2017-12-19T17:11:02.900Z,5.70
2017-12-19T17:13:29.717Z,6.03
2017-12-19T17:15:56.500Z,5.30
2017-12-19T17:18:23.391Z,4.70
2017-12-19T17:20:50.184Z,5.10
2017-12-19T17:23:16.986Z,5.70
2017-12-19T17:25:43.800Z,6.40
2017-12-19T17:28:10.572Z,9.70
2017-12-19T17:30:37.333Z,10.80
2017-12-19T17:33:04.128Z,6.67
2017-12-19T17:35:30.956Z,5.47
2017-12-19T17:37:58.549Z,5.80
2017-12-19T17:40:25.396Z,4.87
2017-12-19T17:42:52.172Z,6.40
2017-12-19T17:45:18.979Z,4.97
2017-12-19T17:47:45.823Z,5.57
2017-12-19T17:50:12.595Z,5.30
2017-12-19T17:52:40.042Z,4.87
2017-12-19T17:55:06.874Z,5.97
2017-12-19T17:57:33.707Z,5.53
2017-12-19T18:00:00.483Z,4.63
2017-12-19T18:02:27.342Z,5.60
2017-12-19T18:04:54.186Z,6.53
2017-12-19T18:07:21.032Z,6.90
2017-12-19T18:09:48.168Z,7.73
2017-12-19T18:12:14.974Z,6.77
2017-12-19T18:14:41.773Z,6.00
2017-12-19T18:17:08.565Z,5.90
2017-12-19T18:19:35.473Z,5.00
2017-12-19T18:22:02.269Z,7.30
2017-12-19T18:24:29.172Z,7.60
2017-12-19T18:26:55.990Z,7.07
2017-12-19T18:29:22.828Z,6.30
2017-12-19T18:31:49.679Z,5.87
2017-12-19T18:34:16.516Z,6.30
2017-12-19T18:36:43.303Z,6.50
2017-12-19T18:39:10.208Z,7.60
2017-12-19T18:41:37.026Z,6.70
2017-12-19T18:44:03.812Z,7.40
2017-12-19T18:46:30.671Z,7.40
2017-12-19T18:48:57.484Z,6.60
2017-12-19T18:51:24.523Z,8.70
2017-12-19T18:53:52.652Z,7.47
2017-12-19T18:56:19.503Z,8.73
2017-12-19T18:58:46.366Z,10.13
2017-12-19T19:01:13.206Z,10.70
2017-12-19T19:03:40.668Z,10.17
2017-12-19T19:06:07.463Z,11.40
2017-12-19T19:08:34.360Z,10.97
2017-12-19T19:11:02.072Z,12.20
2017-12-19T19:13:28.903Z,12.80
2017-12-19T19:15:55.726Z,11.37
2017-12-19T19:18:22.601Z,9.80
2017-12-19T19:20:49.419Z,12.20
2017-12-19T19:23:16.463Z,11.00
2017-12-19T19:25:44.028Z,12.40
2017-12-19T19:28:10.881Z,13.60
2017-12-19T19:30:38.395Z,12.80
2017-12-19T19:33:05.332Z,11.10
2017-12-19T19:35:32.991Z,10.70
2017-12-19T19:37:59.833Z,11.70
2017-12-19T19:40:26.682Z,12.03
2017-12-19T19:42:53.984Z,10.70
2017-12-19T19:45:20.893Z,11.57
2017-12-19T19:47:47.733Z,12.37
2017-12-19T19:50:14.535Z,11.70
2017-12-19T19:52:41.382Z,12.20
2017-12-19T19:55:08.419Z,11.27
2017-12-19T19:57:35.291Z,12.70
2017-12-19T20:00:02.704Z,11.87
2017-12-19T20:02:30.640Z,12.00
2017-12-19T20:04:58.638Z,11.27
2017-12-19T20:07:26.129Z,11.03
2017-12-19T20:09:53.019Z,12.80
2017-12-19T20:12:20.116Z,12.17
2017-12-19T20:14:47.502Z,11.27
2017-12-19T20:17:15.194Z,13.53
2017-12-19T20:19:42.562Z,10.90
2017-12-19T20:22:10.190Z,12.07
2017-12-19T20:24:37.512Z,11.87
2017-12-19T20:27:04.341Z,11.77
2017-12-19T20:29:31.161Z,12.40
2017-12-19T20:31:58.852Z,10.27
2017-12-19T20:34:26.654Z,9.87
2017-12-19T20:36:53.657Z,9.83
2017-12-19T20:39:20.501Z,10.30
2017-12-19T20:41:47.521Z,8.20
2017-12-19T20:44:15.418Z,10.57
2017-12-19T20:46:43.627Z,10.13
2017-12-19T20:49:10.409Z,9.43
2017-12-19T20:51:37.554Z,9.53
2017-12-19T20:54:04.529Z,10.30
2017-12-19T20:56:31.426Z,9.10
2017-12-19T20:58:58.705Z,10.10
2017-12-19T21:01:25.974Z,8.93
2017-12-19T21:03:53.004Z,10.30
2017-12-19T21:06:20.167Z,8.90
2017-12-19T21:08:47.740Z,9.90
2017-12-19T21:11:14.579Z,9.73
2017-12-19T21:13:41.473Z,11.00
2017-12-19T21:16:08.899Z,8.93
2017-12-19T21:18:36.445Z,9.10
2017-12-19T21:21:03.276Z,8.30
2017-12-19T21:23:30.069Z,10.73
2017-12-19T21:25:56.914Z,11.90
2017-12-19T21:28:23.748Z,10.30
2017-12-19T21:30:50.526Z,9.83
2017-12-19T21:33:17.339Z,10.30
2017-12-19T21:35:44.158Z,11.07
2017-12-19T21:38:10.941Z,11.03
2017-12-19T21:40:37.700Z,9.77
2017-12-19T21:43:04.558Z,10.57
2017-12-19T21:45:31.347Z,11.68
2017-12-19T21:47:58.136Z,10.87
2017-12-19T21:50:24.944Z,8.90
2017-12-19T21:52:51.773Z,10.40
2017-12-19T21:55:18.554Z,7.77
2017-12-19T21:57:45.385Z,8.77
2017-12-19T22:00:12.205Z,9.67
2017-12-19T22:02:38.974Z,9.53
2017-12-19T22:05:05.813Z,9.03
2017-12-19T22:07:33.398Z,7.97
2017-12-19T22:10:00.168Z,8.43
2017-12-19T22:12:27.006Z,7.87
2017-12-19T22:14:53.816Z,8.20
2017-12-19T22:17:20.611Z,8.97
2017-12-19T22:19:47.503Z,7.70
2017-12-19T22:22:14.353Z,7.50
2017-12-19T22:24:41.185Z,7.83
2017-12-19T22:27:08.027Z,7.20
2017-12-19T22:29:34.807Z,7.60
2017-12-19T22:32:01.618Z,9.83
2017-12-19T22:34:28.430Z,9.07
2017-12-19T22:36:55.223Z,8.20
2017-12-19T22:39:22.014Z,10.00
2017-12-19T22:41:48.841Z,9.27
2017-12-19T22:44:15.622Z,9.70
2017-12-19T22:46:42.433Z,8.43
2017-12-19T22:49:09.259Z,7.40
2017-12-19T22:51:36.035Z,7.40
2017-12-19T22:54:02.839Z,8.50
2017-12-19T22:56:29.734Z,8.00
2017-12-19T22:58:56.535Z,7.50
2017-12-19T23:01:23.366Z,8.60
2017-12-19T23:03:50.198Z,8.30
2017-12-19T23:06:17.010Z,8.63
2017-12-19T23:08:43.792Z,8.83
2017-12-19T23:11:10.593Z,8.53
2017-12-19T23:13:37.350Z,7.13
2017-12-19T23:16:04.151Z,8.03
2017-12-19T23:18:30.961Z,8.20
2017-12-19T23:20:57.757Z,7.50
2017-12-19T23:23:24.561Z,8.40
2017-12-19T23:25:51.400Z,9.00
2017-12-19T23:28:18.176Z,6.43
2017-12-19T23:30:44.984Z,7.80
2017-12-19T23:33:11.843Z,7.37
2017-12-19T23:35:38.614Z,7.17
